N159FT KFSD-KCSM
Flight info
| Callsign | N159FT |
|---|---|
| Flight time | N/A |
| Altitude | 8500 |
| Route | OFK OLU SLN HUT BFV |
| Aircraft | DC3/M-SDF/S |
Departure
| Time | 2026-04-21 09:30 |
|---|---|
| Airport | Sioux Falls Regional Airport (KFSD) |
Arrival
| Time | N/A |
|---|---|
| Airport | Clinton Sherman Airport (KCSM) |
| Time | Latitude | Longitude | Altitude | Speed | Heading |
|---|---|---|---|---|---|
| 2026-04-21 09:10 | 43.58880 | -96.73276 | 1437 ft | 0 kts | 124° |
| 2026-04-21 09:18 | 43.58880 | -96.73275 | 1437 ft | 0 kts | 124° |
| 2026-04-21 09:18 | 43.58887 | -96.73289 | 1437 ft | 4 kts | 125° |
| 2026-04-21 09:19 | 43.58898 | -96.73310 | 1437 ft | 2 kts | 125° |
| 2026-04-21 09:19 | 43.58908 | -96.73331 | 1437 ft | 1 kts | 120° |
| 2026-04-21 09:19 | 43.58912 | -96.73345 | 1437 ft | 0 kts | 109° |
| 2026-04-21 09:19 | 43.58911 | -96.73342 | 1437 ft | 0 kts | 109° |
| 2026-04-21 09:20 | 43.58910 | -96.73338 | 1437 ft | 0 kts | 109° |
| 2026-04-21 09:20 | 43.58910 | -96.73335 | 1437 ft | 0 kts | 109° |
| 2026-04-21 09:20 | 43.58909 | -96.73332 | 1437 ft | 0 kts | 109° |
| 2026-04-21 09:20 | 43.58908 | -96.73328 | 1437 ft | 0 kts | 109° |
| 2026-04-21 09:21 | 43.58907 | -96.73325 | 1437 ft | 0 kts | 110° |
| 2026-04-21 09:21 | 43.58906 | -96.73321 | 1437 ft | 0 kts | 110° |
| 2026-04-21 09:21 | 43.58905 | -96.73318 | 1437 ft | 0 kts | 110° |
| 2026-04-21 09:21 | 43.58904 | -96.73314 | 1437 ft | 0 kts | 110° |
| 2026-04-21 09:22 | 43.58903 | -96.73311 | 1437 ft | 0 kts | 110° |
| 2026-04-21 09:22 | 43.58902 | -96.73307 | 1437 ft | 0 kts | 110° |
| 2026-04-21 09:22 | 43.58901 | -96.73304 | 1437 ft | 0 kts | 110° |
| 2026-04-21 09:22 | 43.58901 | -96.73300 | 1437 ft | 0 kts | 110° |
| 2026-04-21 09:23 | 43.58899 | -96.73296 | 1437 ft | 0 kts | 110° |
| 2026-04-21 09:23 | 43.58899 | -96.73293 | 1437 ft | 0 kts | 110° |
| 2026-04-21 09:23 | 43.58897 | -96.73289 | 1437 ft | 0 kts | 110° |
| 2026-04-21 09:23 | 43.58897 | -96.73286 | 1437 ft | 0 kts | 110° |
| 2026-04-21 09:24 | 43.58895 | -96.73283 | 1437 ft | 0 kts | 111° |
| 2026-04-21 09:24 | 43.58895 | -96.73280 | 1437 ft | 0 kts | 111° |
| 2026-04-21 09:24 | 43.58894 | -96.73276 | 1437 ft | 0 kts | 111° |
| 2026-04-21 09:24 | 43.58893 | -96.73273 | 1437 ft | 0 kts | 108° |
| 2026-04-21 09:25 | 43.58893 | -96.73255 | 1437 ft | 3 kts | 53° |
| 2026-04-21 09:25 | 43.58920 | -96.73270 | 1437 ft | 7 kts | 311° |
| 2026-04-21 09:25 | 43.58944 | -96.73360 | 1437 ft | 0 kts | 247° |
| 2026-04-21 09:25 | 43.58944 | -96.73366 | 1437 ft | 1 kts | 307° |
| 2026-04-21 09:26 | 43.58995 | -96.73399 | 1437 ft | 15 kts | 2° |
| 2026-04-21 09:26 | 43.59084 | -96.73321 | 1437 ft | 16 kts | 35° |
| 2026-04-21 09:26 | 43.59175 | -96.73267 | 1437 ft | 8 kts | 335° |
| 2026-04-21 09:26 | 43.59197 | -96.73290 | 1437 ft | 1 kts | 310° |
| 2026-04-21 09:27 | 43.59207 | -96.73307 | 1437 ft | 3 kts | 311° |
| 2026-04-21 09:27 | 43.59216 | -96.73321 | 1437 ft | 2 kts | 310° |
| 2026-04-21 09:27 | 43.59230 | -96.73347 | 1437 ft | 5 kts | 305° |
| 2026-04-21 09:27 | 43.59257 | -96.73409 | 1437 ft | 8 kts | 283° |
| 2026-04-21 09:28 | 43.59246 | -96.73467 | 1437 ft | 4 kts | 218° |
| 2026-04-21 09:28 | 43.59236 | -96.73473 | 1437 ft | 2 kts | 207° |
| 2026-04-21 09:28 | 43.59214 | -96.73494 | 1437 ft | 5 kts | 219° |
| 2026-04-21 09:28 | 43.59058 | -96.73647 | 1437 ft | 49 kts | 216° |
| 2026-04-21 09:29 | 43.58655 | -96.74033 | 1438 ft | 90 kts | 215° |
| 2026-04-21 09:29 | 43.58146 | -96.74576 | 1618 ft | 91 kts | 219° |
| 2026-04-21 09:29 | 43.57599 | -96.75098 | 1734 ft | 100 kts | 212° |
| 2026-04-21 09:29 | 43.57006 | -96.75639 | 1855 ft | 105 kts | 212° |
| 2026-04-21 09:30 | 43.56371 | -96.76193 | 1999 ft | 107 kts | 212° |
| 2026-04-21 09:30 | 43.55727 | -96.76753 | 2169 ft | 113 kts | 211° |
| 2026-04-21 09:30 | 43.55034 | -96.77357 | 2394 ft | 119 kts | 212° |
| 2026-04-21 09:30 | 43.54327 | -96.77969 | 2638 ft | 122 kts | 212° |
| 2026-04-21 09:31 | 43.53593 | -96.78600 | 2894 ft | 123 kts | 212° |
| 2026-04-21 09:31 | 43.52857 | -96.79225 | 3148 ft | 124 kts | 213° |
| 2026-04-21 09:31 | 43.52121 | -96.79844 | 3398 ft | 125 kts | 213° |
| 2026-04-21 09:31 | 43.51371 | -96.80467 | 3647 ft | 125 kts | 214° |
| 2026-04-21 09:32 | 43.50624 | -96.81083 | 3891 ft | 126 kts | 214° |
| 2026-04-21 09:32 | 43.49869 | -96.81698 | 4131 ft | 126 kts | 214° |
| 2026-04-21 09:32 | 43.49097 | -96.82321 | 4372 ft | 126 kts | 214° |
| 2026-04-21 09:32 | 43.48334 | -96.82930 | 4605 ft | 127 kts | 214° |
| 2026-04-21 09:33 | 43.47556 | -96.83546 | 4776 ft | 132 kts | 214° |
| 2026-04-21 09:33 | 43.46740 | -96.84192 | 4948 ft | 136 kts | 214° |
| 2026-04-21 09:33 | 43.45906 | -96.84849 | 5134 ft | 138 kts | 214° |
| 2026-04-21 09:34 | 43.43186 | -96.86533 | 5707 ft | 145 kts | 178° |
| 2026-04-21 09:34 | 43.42186 | -96.86611 | 5888 ft | 145 kts | 181° |
| 2026-04-21 09:34 | 43.41169 | -96.86682 | 6074 ft | 145 kts | 184° |
| 2026-04-21 09:35 | 43.40490 | -96.86708 | 6195 ft | 145 kts | 188° |
| 2026-04-21 09:35 | 43.39147 | -96.86792 | 6434 ft | 146 kts | 185° |
| 2026-04-21 09:35 | 43.38130 | -96.86848 | 6611 ft | 146 kts | 185° |
| 2026-04-21 09:35 | 43.37102 | -96.86902 | 6787 ft | 147 kts | 185° |
| 2026-04-21 09:36 | 43.36090 | -96.86951 | 6958 ft | 147 kts | 185° |
| 2026-04-21 09:36 | 43.35066 | -96.86997 | 7128 ft | 147 kts | 185° |
| 2026-04-21 09:36 | 43.34039 | -96.87026 | 7293 ft | 148 kts | 183° |
| 2026-04-21 09:36 | 43.33013 | -96.87007 | 7459 ft | 148 kts | 184° |
| 2026-04-21 09:37 | 43.31968 | -96.86983 | 7625 ft | 148 kts | 184° |
| 2026-04-21 09:37 | 43.30936 | -96.86951 | 7786 ft | 149 kts | 184° |
| 2026-04-21 09:37 | 43.29897 | -96.86912 | 7946 ft | 149 kts | 183° |
| 2026-04-21 09:37 | 43.28868 | -96.86865 | 8103 ft | 149 kts | 183° |
| 2026-04-21 09:38 | 43.27825 | -96.86809 | 8259 ft | 149 kts | 183° |
| 2026-04-21 09:38 | 43.26778 | -96.86746 | 8414 ft | 150 kts | 183° |
| 2026-04-21 09:38 | 43.25744 | -96.86678 | 8564 ft | 150 kts | 183° |
| 2026-04-21 09:38 | 43.25049 | -96.86626 | 8664 ft | 150 kts | 183° |